KGZL

Stigler Regional Airport

Stigler, Oklahoma, USA
METAR KGZL 182135Z AUTO 11005KT 10SM 32/18 A2994 RMK AO2
Observed Flight Rules
Aug-18 @ 21:35 UTC (19 minutes ago)
Wind Visibility
110° at 5 knots 10 miles
Temperatures Readings
Current 32°C / 90°F
Dewpoint 18°C / 64°F
Humidity 43%
Altimeter 29.94" Hg
Pressure 1014 hPa
Elevation 183
METAR KGZL 182135Z AUTO 11005KT 10SM 32/18 A2994 RMK AO2
Observed Flight Rules
Aug-18 @ 21:35 UTC
(19 minutes ago)
Wind Visibility
110° at 5 knots 10 miles
Temperature Dewpoint
32°C / 90°F 18°C / 64°F
Humidity Altimeter Pressure
43% 29.94" Hg 1014 hPa